EDLN/MGL METAR and TAF weather

Enter ICAO airport designator
Station Type Date Time Source
EDLN METAR 2018/12/13 16:20 UTC NOAA

EDLN 131620Z 06007KT CAVOK 02/M03 Q1020


Station Type Date Time Source
EDLN Decoded METAR 2018/12/13 16:20 UTC NOAA

Monchengladbach, Germany (EDLN) 51-13-49N 006-30-16E
Dec 13, 2018 - 11:20 AM EST / 2018.12.13 1620 UTC
Wind: from the ENE (060 degrees) at 8 MPH (7 KT):0
Visibility: greater than 7 mile(s):0
Temperature: 35 F (2 C)
Windchill: 28 F (-2 C):1
Dew Point: 26 F (-3 C)
Relative Humidity: 69%
Pressure (altimeter): 30.12 in. Hg (1020 hPa)
ob: EDLN 131620Z 06007KT CAVOK 02/M03 Q1020
cycle: 16

Station Type Date Time Source
EDLN TAF 2010/02/22 14:20 UTC NOAA

METAR EDLN 221420Z 18010G20KT 090V240 9999 SCT030 BKN045 11/06 Q0986
RMK ATIS R=


Example: see airport list